Helper, Utah
Current Conditions -  °F | °C
As of 9:53 AM on Sunday 23 Nov 2014 (Local Time) from KPUC Reporting Station
Clear Clear  
Wind Chill: 22°   Ceiling: Unl
Heat Index: 33°   Visibility: 10mi
Dew Point: 17°   Wind: 17mph
Humidity: 52%   Direction: 320°NW
Pressure: 30.06"   Gusts: 26mph
Location:  39.68°N, 110.85°W
Report Text: KPUC 231653Z AUTO 32015G23KT 10SM CLR 01/M08 A3006 RMK AO2 SLP214 T00061083
Loading
Personal Weather Stations






























Interactive Weather Map New forecast layout! Learn more

10-Day Weather Forecast

Advertisements
Track Severe Weather on mobile